Addison, Michigan
Current Conditions -  °F | °C
As of 9:55 AM on Sunday 21 Dec 2014 (Local Time) from KJYM Reporting Station
Haze Haze  
Wind Chill: 25°   Ceiling: 6000
Heat Index: 30°   Visibility: 2.5mi
Dew Point: 29°   Wind: 5mph
Humidity: 96%   Direction: 160°SSE
Pressure: 30.26"   Gusts: NA
Location:  41.99°N, 84.35°W
Report Text: KJYM 211455Z AUTO 16004KT 2 1/2SM BR OVC060 M01/M02 A3026 RMK AO2 T10121018
Loading
Personal Weather Stations






























Interactive Weather Map New forecast layout! Learn more

10-Day Weather Forecast

Advertisements
Track Severe Weather on mobile